Immagine casuale
Testata Regione Lazio ARSIAL SIARL

Ultima Misura Rilevata

Temperatura, Umidità, Pioggia, Pressione Radiazione Solare, Venti, Evapotraspirazione, ecc.
Temperature diurne e notturne Direzione vento Legenda
Prov Stazione Data TMin TMed TMax UMed Pioggia PMed
FR ALATRI Basciano 17/02/2020 5,9 10 17,7 74 0 1.021
FR ALVITO Az. Ist. S. Benedetto 17/02/2020 -1,1 6,6 15,7 82 0 1.028
FR ANAGNI La Gloria 17/02/2020 1,9 8,2 18,6 86 0,2 1.029
FR ARPINO Vigne Piane 17/02/2020 5,3 8,8 15,6 80 0 1.025
FR BOVILLE ERNICA Sasso 17/02/2020 2,9 9,3 18,1 78 0 1.028
FR CECCANO C.da Passo del Cardinale 17/02/2020 -1,6 7 18 86 0 ----
FR ESPERIA Modale 17/02/2020 -0,3 7 16,5 69 0,2 1.022
FR PASTENA Acero 17/02/2020 -2,9 5,1 17,3 89 0,2 1.024
FR PIGLIO Civitella 17/02/2020 2,6 8,8 17,9 77 0 1.026
FR PONTECORVO Melfi di Sotto 17/02/2020 -0,8 7,4 18,2 86 0 ----
FR S. ELIA FIUMERAPIDO Portella 17/02/2020 1,7 8,5 17,6 87 0 1.028
FR S. GIORGIO A LIRI Porto 17/02/2020 -1,6 6,8 19 81 0,2 1.021
FR SGURGOLA Campo Lungo 17/02/2020 -1,3 6,8 18,8 86 0 ----
FR VALLECORSA Serbatoio comunale 17/02/2020 6,1 9,5 16,4 81 0,2 1.027
LT APRILIA Le Ferriere 17/02/2020 4,9 9,5 16,2 87 0 1.027
LT CISTERNA B.go Carso 17/02/2020 2,5 8,1 15,3 89 0,1 ----
LT CISTERNA Doganella di Ninfa 17/02/2020 2,9 9 17,1 80 0 1.028
LT CORI Portone 17/02/2020 5,9 10,4 18,1 74 0 1.027
LT FONDI Capratica 17/02/2020 2,3 8,5 16,3 93 0 1.028
LT FORMIA Loc. Gianola 17/02/2020 1,1 8 14,8 91 0 ----
LT ITRI Valle Quercia 17/02/2020 6,3 9,9 14,9 87 0 1.026
LT MAENZA Casacotta 17/02/2020 3 9,2 16,3 87 0 1.025
LT MINTURNO Pulcherini 17/02/2020 7,6 11,1 16,4 90 0 1.028
LT PONTINIA Cotarda 17/02/2020 0,3 8 18,1 90 0,2 1.026
LT SABAUDIA Acquaviva 17/02/2020 3,9 9 16,1 92 0,4 1.027
LT SONNINO Frasso 17/02/2020 7,8 11,7 18 86 0 1.027
RI ACCUMOLI Terracino 17/02/2020 6 9,2 14,1 34 0 1.026
RI BORGOVELINO Ponte Basso 17/02/2020 -1,1 6 17,7 76 0 1.027
RI CANTALUPO S. Francesco 17/02/2020 0,7 7,1 15,1 81 0 ----
RI CASTEL DI TORA Monte di Tora 17/02/2020 -1,2 5,9 16,6 76 0 1.025
RI CASTELNUOVO FARFA C. Spadone 17/02/2020 3,4 8,8 17 77 0 ----
RI CONFIGNI Portella 17/02/2020 4,1 9 15,3 65 0 1.027
RI FARA SABINA Canneto 17/02/2020 5,8 10,4 18,2 70 0 1.026
RI FARA SABINA Sant'Andrea 17/02/2020 3,9 9,2 17,2 73 0 ----
RI MONTELEONE S. Prato Camino 17/02/2020 3,4 9 18,3 69 0 1.029
RI MONTOPOLI IN SABINA Colle Arcone 17/02/2020 3,4 8,5 16,4 84 0 ----
RI MONTOPOLI IN SABINA Villa Caprola 17/02/2020 3,9 9,3 18,6 88 0 ----
RI POGGIO CATINO Pastine 17/02/2020 4,8 9,6 16,3 72 0 ----
RI POGGIO NATIVO Casali 17/02/2020 5,8 9,8 15 70 0 ----
RI RIETI Piana di Rieti 17/02/2020 -3 6,8 20,2 68 0 1.030
RI SCANDRIGLIA Ponticelli 17/02/2020 4,9 9,2 15,5 74 0 ----
RM AGOSTA La Cisterna 17/02/2020 0,4 7 18,1 74 0 1.024
RM BRACCIANO Prato Pianciano 17/02/2020 1,8 8,5 18 81 0 1.023
RM CANALE MONTERANO Monte Virginio 17/02/2020 0,4 7,3 16,9 75 0 1.023
RM CERVETERI Campo di Mare 17/02/2020 2,6 9 15,7 84 0,1 ----
RM CIVITELLA S.PAOLO Le Cese 17/02/2020 2,5 9,4 17,4 81 0,2 1.026
RM FIUMICINO Maccarese 17/02/2020 2,6 9,3 16,4 91 0,2 1.027
RM FIUMICINO Testa di Lepre 17/02/2020 4,7 9,8 16,7 88 0 ----
RM FORMELLO Perazzeta 17/02/2020 3,6 9,7 16,9 84 0,1 ----
RM FRASCATI Prata Porci 17/02/2020 2,7 8,8 17,7 69 0 1.027
RM GENAZZANO Coop. La Sonnina 17/02/2020 3,3 8,8 16,6 75 0 1.027
RM GROTTAFERRATA Valle Marciana 17/02/2020 3,9 9,1 17,2 63 0 1.027
RM LADISPOLI Palo Laziale 17/02/2020 3,8 8,5 14,3 94 0,1 1.028
RM LICENZA Colle Franco 17/02/2020 1,9 7,5 17,7 73 0 1.022
RM MARCELLINA V. Campetella 17/02/2020 3,4 9,1 17,5 81 0,2 ----
RM MARINO Gotto d'Oro 17/02/2020 5,3 11 16,8 68 0 1.029
RM MONTECOMPATRI Colle Mattia 17/02/2020 2,7 8,2 17,4 71 0 1.029
RM MONTECOMPATRI Pantano Borghese 17/02/2020 -1,7 7,2 19,5 80 0 1.022
RM MONTELIBRETTI Bruciati 17/02/2020 1,9 7,4 18,3 83 0 ----
RM MONTEPORZIO Camaldoli 17/02/2020 3,5 7,6 13,2 61 0 1.029
RM MONTEROTONDO Grotta Marozza 17/02/2020 2,8 8,9 17,9 83 0,2 1.027
RM PALOMBARA Fonte Grande 17/02/2020 0,9 7,1 17,8 82 0,2 ----
RM ROMA Capocotta 17/02/2020 N.D. N.D. N.D. N.D. N.D. ----
RM ROMA Ponte di Nona 17/02/2020 2 9,2 18,4 84 0 1.029
RM ROMA Via Lanciani 38 17/02/2020 6,3 11,2 17,6 76 0 1.026
RM S. GREGORIO C. Faustiniano 17/02/2020 5,5 9,8 17,3 66 0 1.021
RM VELLETRI Cantina Sperimentale 17/02/2020 2,6 8,5 16,8 77 0 1.027
RM VELLETRI Prato Lungo 17/02/2020 3,2 8,9 16,3 79 0,2 ----
RM ZAGAROLO Santa Apollara 17/02/2020 5,4 9,9 17,1 74 0 ----
VT ACQUAPENDENTE Falconiera 17/02/2020 1,2 7,5 14,8 78 0 1.025
VT BAGNOREGIO Castell Cellesi 17/02/2020 3,9 8,6 14,4 78 0 ----
VT BASSANO R. Piano Mola 17/02/2020 3,8 9,1 15,6 62 0 1.023
VT BLERA Puntoni 17/02/2020 2,9 8,6 16,4 70 0 1.027
VT BOLSENA Capone 17/02/2020 1,5 8,4 17,7 81 0 1.027
VT BOLSENA Rentica 17/02/2020 1,7 7,4 14,1 88 0 ----
VT CANINO Diga Timone 17/02/2020 1,5 7,6 16,1 88 0 1.025
VT CANINO Pianacce 17/02/2020 0,6 8,1 15,5 88 0 1.028
VT CANINO San Valeriano 17/02/2020 5,6 9,5 14,6 84 0 ----
VT CELLENO Acquaforte 17/02/2020 1,9 7,8 14,7 86 0 ----
VT CORCHIANO Pantalone 17/02/2020 1 8,1 17,6 83 0,2 1.026
VT FARNESE Gressa 17/02/2020 1,8 7,9 14,1 83 0 ----
VT FARNESE Pian di Sala 17/02/2020 -2,6 5,9 15,2 88 0,1 ----
VT GROTTE DI CASTRO Borghetto 17/02/2020 1,1 6,9 15,6 85 0 1.026
VT GROTTE DI CASTRO Purgatorio 17/02/2020 3,3 8,1 15,9 85 0 1.026
VT LATERA Centro Florovivaistico 17/02/2020 -1,9 6,6 16 84 0,2 1.027
VT MONTALTO Le Murelle 17/02/2020 4,8 9,7 14,9 91 0 1.030
VT MONTALTO Pescia Romana 17/02/2020 2,7 9,5 15,7 90 0 1.026
VT MONTEFIASCONE Commenda 17/02/2020 3,5 8,8 15,4 82 0 ----
VT RONCIGLIONE Ponterotto 17/02/2020 -0,8 7,4 16,3 78 0,2 ----
VT SORIANO CIMINO Pantane 17/02/2020 -1,7 6,7 18,1 78 0,2 1.027
VT SORIANO CIMINO Poggio di Chia 17/02/2020 -0,9 6,9 16,9 79 0 ----
VT TARQUINIA Portaccia 17/02/2020 3,7 9,5 16,7 90 0,1 ----
VT TUSCANIA Montebello 17/02/2020 3,2 8,4 16 89 0 ----
VT VETRALLA Marchionato 17/02/2020 3,3 8,5 16,3 72 0 ----
VT VITERBO Pisello 17/02/2020 4 8,8 14,8 82 0 ----
N.D. = Dati Non Disponibili
---- = Sensore non presente

Le misure esposte sono grezze, ovvero non sono state validate.